This is the latest recevied weather packets stored in our database for station/object WP4NYS-13. If no packets are shown the sender has not sent any weather packets the latest 10 day(s).
| Time | Temp. | Humidity | Pressure | Rain* | Wind** | Luminosity | Snow |
|---|---|---|---|---|---|---|---|
| 1777659215 | 33.33° C | 42% | 1011.4 hPa | 0 mm | - | - | - |
| 1777658912 | 32.78° C | 43% | 1011.4 hPa | 0 mm | - | - | - |
| 1777658608 | 32.22° C | 44% | 1011.7 hPa | 0 mm | - | - | - |
| 1777658306 | 32.22° C | 44% | 1011.8 hPa | 0 mm | - | - | - |
| 1777658002 | 31.11° C | 45% | 1012 hPa | 0 mm | - | - | - |
| 1777657699 | 30.56° C | 47% | 1012.1 hPa | 0 mm | - | - | - |
| 1777657396 | 31.11° C | 47% | 1012 hPa | 0 mm | - | - | - |
| 1777657094 | 31.11° C | 47% | 1012.1 hPa | 0 mm | - | - | - |
| 1777656792 | 30° C | 50% | 1012.1 hPa | 0 mm | - | - | - |
| 1777656492 | 30° C | 49% | 1012.2 hPa | 0 mm | - | - | - |
| 1777656187 | 30° C | 50% | 1012.4 hPa | 0 mm | - | - | - |
| 1777655883 | 30.56° C | 49% | 1012.4 hPa | 0 mm | - | - | - |
| 1777655580 | 31.67° C | 46% | 1012.3 hPa | 0 mm | - | - | - |
| 1777655277 | 31.67° C | 46% | 1012.6 hPa | 0 mm | - | - | - |
| 1777654974 | 31.67° C | 45% | 1012.8 hPa | 0 mm | - | - | - |
| 1777654671 | 31.11° C | 46% | 1012.8 hPa | 0 mm | - | - | - |
| 1777654369 | 31.11° C | 47% | 1013 hPa | 0 mm | - | - | - |
| 1777654067 | 30.56° C | 48% | 1013.1 hPa | 0 mm | - | - | - |
| 1777653763 | 30.56° C | 48% | 1013.3 hPa | 0 mm | - | - | - |
| 1777653459 | 30.56° C | 48% | 1013.3 hPa | 0 mm | - | - | - |
| 1777653157 | 30° C | 48% | 1013.4 hPa | 0 mm | - | - | - |
| 1777652852 | 30° C | 50% | 1013.5 hPa | 0 mm | - | - | - |
| 1777652549 | 30° C | 50% | 1013.5 hPa | 0 mm | - | - | - |
| 1777652246 | 30° C | 50% | 1013.4 hPa | 0 mm | - | - | - |
| 1777651944 | 30° C | 50% | 1013.3 hPa | 0 mm | - | - | - |
* Rain latest hour (hover to see other rain measurements)
** Current wind speed in m/s (hover to see current wind gust speed)